map of KEZS home
Great Circle Mapper logo
KEZS - Airport
Location
City:  Shawano, Wisconsin, United States
Name:Shawano Municipal Airport
ICAO:KEZS
FAA:EZS

Details
Type:Airport (Airfield)
Use:Public/Civil
Latitude:4447'14"N (44.787306)
Longitude:8833'36"W (-88.560013)
Datum:WGS 1984
Elevation:813 ft (248 m)
Runways:2
Longest:3899 × 75 ft (1188 × 23 m), paved

Time
Time Zone:UTC-6 (DST-5)
Local Time:

Weather
METAR:KEZS 191315Z AUTO 00000KT 1/4SM FG OVC002 11/10 A3011 RMK AO2 T01120104

Related Locations
Nearby:
Farthest:MGV: 10975 mi / 17663 km
Margaret River, WA, AU

Find:

   beyond  
but within

Other Information
Maps:
NOTAMs:
Links:
Sources:

  
flag of United States
flag of Wisconsin
  

Sectional Chart

Flight Planning
at skyvector.com

Satellite Image

Google Maps Satellite View

 

Copyright © 2004-2014 Karl L. Swartz. All rights reserved.
The Great Circle Mapper name and logo are trademarks of the Great Circle Mapper.
All other trademarks mentioned herein belong to their respective owners.
Please see credits for attibutions and further copyright information.

  Follow gcmap on Facebook Follow gcmap on Twitter

hCard Microformat

Geo Microformat